createdAt,value
2022-10-26T00:00:12.052Z,22.76
2022-10-26T00:02:38.625Z,22.78
2022-10-26T00:05:06.359Z,22.79
2022-10-26T00:07:32.908Z,22.78
2022-10-26T00:09:59.452Z,22.78
2022-10-26T00:12:25.914Z,22.78
2022-10-26T00:14:52.420Z,22.78
2022-10-26T00:17:18.939Z,22.66
2022-10-26T00:19:46.532Z,22.78
2022-10-26T00:22:13.009Z,22.78
2022-10-26T00:24:39.527Z,22.78
2022-10-26T00:27:06.000Z,22.77
2022-10-26T00:29:32.536Z,22.77
2022-10-26T00:31:59.036Z,22.76
2022-10-26T00:34:25.580Z,22.78
2022-10-26T00:36:52.050Z,22.78
2022-10-26T00:39:18.535Z,22.78
2022-10-26T00:41:45.052Z,22.77
2022-10-26T00:44:45.574Z,22.75
2022-10-26T00:47:30.844Z,22.74
2022-10-26T00:49:57.926Z,22.74
2022-10-26T00:52:24.545Z,22.76
2022-10-26T00:54:51.598Z,22.73
2022-10-26T00:57:18.100Z,22.75
2022-10-26T00:59:44.617Z,22.76
2022-10-26T01:02:11.267Z,22.75
2022-10-26T01:04:37.816Z,22.75
2022-10-26T01:07:04.916Z,22.75
2022-10-26T01:09:32.008Z,22.75
2022-10-26T01:11:58.671Z,22.75
2022-10-26T01:14:26.052Z,22.75
2022-10-26T01:17:11.884Z,22.76
2022-10-26T01:19:51.798Z,22.75
2022-10-26T01:22:22.589Z,22.67
2022-10-26T01:24:55.055Z,22.76
2022-10-26T01:27:27.517Z,22.75
2022-10-26T01:30:12.331Z,22.11
2022-10-26T01:32:45.224Z,22.75
2022-10-26T01:35:17.258Z,22.76
2022-10-26T01:37:49.632Z,22.74
2022-10-26T01:40:42.490Z,22.74
2022-10-26T01:43:09.636Z,22.74
2022-10-26T01:45:37.485Z,22.65
2022-10-26T01:48:04.077Z,22.73
2022-10-26T01:50:30.567Z,22.63
2022-10-26T01:52:57.022Z,22.73
2022-10-26T01:55:44.928Z,22.73
2022-10-26T01:58:20.320Z,22.74
2022-10-26T02:00:54.456Z,22.73
2022-10-26T02:03:41.885Z,22.73
2022-10-26T02:06:23.044Z,22.65
2022-10-26T02:08:57.307Z,22.66
2022-10-26T02:11:40.131Z,22.73
2022-10-26T02:14:29.367Z,22.74
2022-10-26T02:16:58.404Z,22.74
2022-10-26T02:19:29.918Z,22.75
2022-10-26T02:22:19.684Z,22.65
2022-10-26T02:24:46.280Z,22.75
2022-10-26T02:27:18.652Z,22.74
2022-10-26T02:29:45.199Z,22.74
2022-10-26T02:32:11.723Z,22.74
2022-10-26T02:34:38.301Z,22.73
2022-10-26T02:37:04.831Z,22.73
2022-10-26T02:39:32.606Z,22.74
2022-10-26T02:42:01.235Z,22.73
2022-10-26T02:44:29.044Z,22.73
2022-10-26T02:46:55.581Z,22.70
2022-10-26T02:49:22.082Z,22.73
2022-10-26T02:51:56.489Z,22.74
2022-10-26T02:54:42.271Z,22.69
2022-10-26T02:57:26.537Z,22.72
2022-10-26T02:59:53.002Z,22.65
2022-10-26T03:02:19.557Z,22.65
2022-10-26T03:04:46.091Z,22.71
2022-10-26T03:07:12.626Z,22.72
2022-10-26T03:09:39.121Z,22.71
2022-10-26T03:12:05.848Z,22.72
2022-10-26T03:14:32.358Z,22.72
2022-10-26T03:16:58.840Z,22.70
2022-10-26T03:19:25.896Z,22.73
2022-10-26T03:21:52.363Z,22.73
2022-10-26T03:24:18.867Z,22.71
2022-10-26T03:26:45.330Z,22.72
2022-10-26T03:29:11.828Z,22.72
2022-10-26T03:31:38.377Z,22.73
2022-10-26T03:34:04.900Z,22.72
2022-10-26T03:36:31.430Z,22.71
2022-10-26T03:38:57.905Z,22.72
2022-10-26T03:41:24.398Z,22.71
2022-10-26T03:43:50.873Z,22.72
2022-10-26T03:46:17.357Z,22.67
2022-10-26T03:48:43.855Z,22.70
2022-10-26T03:51:10.335Z,22.72
2022-10-26T03:53:36.856Z,22.72
2022-10-26T03:56:03.327Z,22.70
2022-10-26T03:58:29.844Z,22.71
2022-10-26T04:00:56.311Z,22.71
2022-10-26T04:03:22.868Z,22.71
2022-10-26T04:05:49.418Z,22.73
2022-10-26T04:08:15.884Z,22.72
2022-10-26T04:10:42.387Z,22.72
2022-10-26T04:13:10.462Z,22.72
2022-10-26T04:15:36.941Z,22.72
2022-10-26T04:18:03.556Z,22.71
2022-10-26T04:20:30.611Z,22.72
2022-10-26T04:23:06.571Z,22.71
2022-10-26T04:25:33.683Z,22.72
2022-10-26T04:28:01.148Z,22.71
2022-10-26T04:30:27.666Z,22.67
2022-10-26T04:32:54.164Z,22.72
2022-10-26T04:35:20.644Z,22.71
2022-10-26T04:37:47.207Z,22.72
2022-10-26T04:40:13.844Z,22.71
2022-10-26T04:42:47.171Z,22.10
2022-10-26T04:45:14.871Z,22.71
2022-10-26T04:47:41.498Z,22.68
2022-10-26T04:50:08.639Z,22.69
2022-10-26T04:52:35.471Z,22.70
2022-10-26T04:55:02.081Z,22.70
2022-10-26T04:57:28.637Z,22.70
2022-10-26T04:59:55.096Z,22.70
2022-10-26T05:02:21.716Z,22.70
2022-10-26T05:04:48.403Z,22.70
2022-10-26T05:07:14.890Z,22.69
2022-10-26T05:09:41.406Z,22.60
2022-10-26T05:12:07.894Z,22.67
2022-10-26T05:14:34.391Z,22.70
2022-10-26T05:17:00.982Z,22.68
2022-10-26T05:19:27.456Z,22.68
2022-10-26T05:21:53.932Z,22.66
2022-10-26T05:24:20.435Z,22.68
2022-10-26T05:26:46.910Z,22.65
2022-10-26T05:29:13.403Z,22.65
2022-10-26T05:31:39.900Z,22.65
2022-10-26T05:34:06.440Z,22.65
2022-10-26T05:36:32.919Z,22.64
2022-10-26T05:38:59.659Z,22.62
2022-10-26T05:41:26.239Z,22.61
2022-10-26T05:43:52.738Z,22.59
2022-10-26T05:46:19.236Z,22.58
2022-10-26T05:48:45.723Z,22.58
2022-10-26T05:51:12.601Z,22.55
2022-10-26T05:53:39.117Z,22.56
2022-10-26T05:56:38.828Z,22.55
2022-10-26T05:59:10.533Z,22.54
2022-10-26T06:01:40.162Z,22.55
2022-10-26T06:04:21.754Z,22.47
2022-10-26T06:06:48.424Z,22.55
2022-10-26T06:09:15.223Z,22.56
2022-10-26T06:11:42.032Z,22.55
2022-10-26T06:14:08.938Z,22.55
2022-10-26T06:16:41.177Z,22.56
2022-10-26T06:19:36.265Z,22.56
2022-10-26T06:22:17.837Z,22.57
2022-10-26T06:25:15.687Z,22.57
2022-10-26T06:28:00.930Z,22.57
2022-10-26T06:30:27.494Z,22.58
2022-10-26T06:33:01.426Z,22.58
2022-10-26T06:36:04.789Z,22.58
2022-10-26T06:38:31.697Z,22.58
2022-10-26T06:40:58.271Z,22.56
2022-10-26T06:43:29.730Z,22.57
2022-10-26T06:46:18.781Z,22.59
2022-10-26T06:49:21.028Z,22.60
2022-10-26T06:51:54.847Z,22.53
2022-10-26T06:54:41.972Z,22.61
2022-10-26T06:57:10.216Z,22.60
2022-10-26T07:00:13.135Z,22.53
2022-10-26T07:02:39.693Z,22.62
2022-10-26T07:05:10.132Z,22.60
2022-10-26T07:07:36.615Z,22.59
2022-10-26T07:10:03.220Z,22.62
2022-10-26T07:12:32.862Z,22.58
2022-10-26T07:15:00.699Z,22.61
2022-10-26T07:17:28.434Z,22.62
2022-10-26T07:19:55.129Z,22.60
2022-10-26T07:22:21.624Z,22.62
2022-10-26T07:24:50.815Z,22.59
2022-10-26T07:27:20.305Z,22.62
2022-10-26T07:29:46.790Z,22.58
2022-10-26T07:32:13.259Z,22.60
2022-10-26T07:34:39.813Z,22.60
2022-10-26T07:37:06.344Z,22.60
2022-10-26T07:39:32.875Z,22.57
2022-10-26T07:41:59.432Z,22.59
2022-10-26T07:44:25.939Z,22.59
2022-10-26T07:46:52.411Z,22.60
2022-10-26T07:49:19.627Z,22.60
2022-10-26T07:51:46.687Z,22.61
2022-10-26T07:54:13.169Z,22.61
2022-10-26T07:56:39.656Z,22.62
2022-10-26T07:59:06.113Z,22.60
2022-10-26T08:01:32.704Z,22.62
2022-10-26T08:03:59.247Z,22.63
2022-10-26T08:06:25.787Z,22.63
2022-10-26T08:08:52.677Z,22.64
2022-10-26T08:11:19.239Z,22.65
2022-10-26T08:13:45.805Z,22.64
2022-10-26T08:16:12.392Z,22.65
2022-10-26T08:18:38.903Z,22.65
2022-10-26T08:21:11.265Z,22.66
2022-10-26T08:23:38.405Z,22.66
2022-10-26T08:26:05.037Z,22.67
2022-10-26T08:28:31.548Z,22.68
2022-10-26T08:30:58.147Z,22.67
2022-10-26T08:33:24.796Z,22.68
2022-10-26T08:36:04.866Z,22.68
2022-10-26T08:38:33.769Z,22.69
2022-10-26T08:41:01.356Z,22.70
2022-10-26T08:43:30.159Z,22.63
2022-10-26T08:46:14.511Z,22.71
2022-10-26T08:48:44.399Z,22.72
2022-10-26T08:51:13.652Z,22.66
2022-10-26T08:54:10.292Z,22.73
2022-10-26T08:56:50.713Z,22.72
2022-10-26T08:59:17.423Z,22.73
2022-10-26T09:01:43.972Z,22.73
2022-10-26T09:04:11.917Z,22.70
2022-10-26T09:06:50.400Z,22.72
2022-10-26T09:09:22.620Z,22.64
2022-10-26T09:12:07.372Z,22.74
2022-10-26T09:14:44.506Z,22.73
2022-10-26T09:17:42.915Z,22.73
2022-10-26T09:20:35.157Z,22.74
2022-10-26T09:23:03.452Z,22.73
2022-10-26T09:25:33.621Z,22.73
2022-10-26T09:28:01.468Z,22.73
2022-10-26T09:30:28.211Z,22.74
2022-10-26T09:33:20.833Z,22.73
2022-10-26T09:35:53.204Z,22.74
2022-10-26T09:38:25.205Z,22.74
2022-10-26T09:41:13.553Z,22.75
2022-10-26T09:43:50.960Z,22.64
2022-10-26T09:46:20.834Z,22.75
2022-10-26T09:48:53.700Z,22.75
2022-10-26T09:51:20.303Z,22.76
2022-10-26T09:53:47.894Z,22.76
2022-10-26T09:56:14.499Z,22.75
2022-10-26T09:58:45.424Z,22.75
2022-10-26T10:01:27.691Z,22.76
2022-10-26T10:04:13.087Z,22.76
2022-10-26T10:06:40.250Z,22.77
2022-10-26T10:09:16.588Z,22.76
2022-10-26T10:11:57.189Z,22.77
2022-10-26T10:14:28.450Z,22.75
2022-10-26T10:16:55.948Z,22.64
2022-10-26T10:19:24.903Z,22.76
2022-10-26T10:21:52.100Z,22.74
2022-10-26T10:24:32.488Z,22.76
2022-10-26T10:27:00.104Z,22.76
2022-10-26T10:29:47.689Z,22.73
2022-10-26T10:32:24.721Z,22.77
2022-10-26T10:34:52.197Z,22.77
2022-10-26T10:37:27.648Z,22.77
2022-10-26T10:40:24.435Z,22.77
2022-10-26T10:42:51.975Z,22.77
2022-10-26T10:45:29.028Z,22.68
2022-10-26T10:48:05.692Z,22.75
2022-10-26T10:50:32.608Z,22.78
2022-10-26T10:53:19.547Z,22.75
2022-10-26T10:55:59.541Z,22.73
2022-10-26T10:59:01.086Z,22.77
2022-10-26T11:01:32.583Z,22.65
2022-10-26T11:04:37.842Z,22.18
2022-10-26T11:07:04.918Z,22.71
2022-10-26T11:09:32.875Z,22.65
2022-10-26T11:12:19.021Z,22.78
2022-10-26T11:14:48.975Z,22.78
2022-10-26T11:17:18.077Z,22.78
2022-10-26T11:20:02.594Z,22.78
2022-10-26T11:22:35.893Z,22.72
2022-10-26T11:25:07.660Z,22.72
2022-10-26T11:27:39.843Z,22.78
2022-10-26T11:30:07.149Z,22.79
2022-10-26T11:32:54.865Z,22.79
2022-10-26T11:35:26.800Z,22.77
2022-10-26T11:38:46.595Z,22.79
2022-10-26T11:41:36.569Z,22.79
2022-10-26T11:44:08.558Z,22.76
2022-10-26T11:46:38.769Z,22.79
2022-10-26T11:49:14.362Z,22.78
2022-10-26T11:51:46.630Z,22.77
2022-10-26T11:56:53.083Z,22.79
2022-10-26T11:59:21.127Z,22.76
2022-10-26T12:01:50.349Z,22.80
2022-10-26T12:04:18.032Z,22.78
2022-10-26T12:06:44.522Z,22.79
2022-10-26T12:09:40.282Z,22.79
2022-10-26T12:12:38.849Z,22.77
2022-10-26T12:15:17.310Z,22.79
2022-10-26T12:17:54.374Z,22.78
2022-10-26T12:20:39.720Z,22.79
2022-10-26T12:23:06.231Z,22.78
2022-10-26T12:25:32.695Z,22.79
2022-10-26T12:28:00.885Z,22.79
2022-10-26T12:30:30.484Z,22.79
2022-10-26T12:33:01.007Z,22.68
2022-10-26T12:35:31.806Z,22.81
2022-10-26T12:37:58.597Z,22.81
2022-10-26T12:40:31.204Z,22.80
2022-10-26T12:42:58.222Z,22.81
2022-10-26T12:45:24.851Z,22.78
2022-10-26T12:47:51.505Z,22.81
2022-10-26T12:50:24.335Z,22.82
2022-10-26T12:52:55.894Z,22.82
2022-10-26T12:55:34.608Z,22.82
2022-10-26T12:58:31.221Z,22.82
2022-10-26T13:01:00.667Z,22.82
2022-10-26T13:04:09.152Z,22.81
2022-10-26T13:06:47.912Z,22.81
2022-10-26T13:09:34.660Z,22.80
2022-10-26T13:12:02.110Z,22.80
2022-10-26T13:14:34.374Z,22.81
2022-10-26T13:17:01.862Z,22.77
2022-10-26T13:19:40.536Z,22.80
2022-10-26T13:22:13.964Z,22.76
2022-10-26T13:24:40.474Z,22.80
2022-10-26T13:27:08.051Z,22.79
2022-10-26T13:30:03.410Z,22.81
2022-10-26T13:32:33.480Z,22.80
2022-10-26T13:35:00.244Z,22.75
2022-10-26T13:37:27.703Z,22.78
2022-10-26T13:39:55.946Z,22.77
2022-10-26T13:42:25.391Z,22.79
2022-10-26T13:45:03.734Z,22.80
2022-10-26T13:47:36.777Z,22.76
2022-10-26T13:50:14.034Z,22.79
2022-10-26T13:52:45.548Z,22.73
2022-10-26T13:55:28.758Z,22.78
2022-10-26T13:58:29.327Z,22.76
2022-10-26T14:01:14.093Z,22.78
2022-10-26T14:03:41.144Z,22.78
2022-10-26T14:06:29.341Z,22.77
2022-10-26T14:09:01.034Z,22.76
2022-10-26T14:11:35.826Z,22.76
2022-10-26T14:14:03.007Z,22.72
2022-10-26T14:16:30.362Z,22.76
2022-10-26T14:18:56.857Z,22.67
2022-10-26T14:21:23.346Z,22.74
2022-10-26T14:23:56.077Z,22.77
2022-10-26T14:26:27.722Z,22.77
2022-10-26T14:29:01.202Z,22.78
2022-10-26T14:31:32.026Z,22.77
2022-10-26T14:33:59.812Z,22.78
2022-10-26T14:36:36.598Z,22.78
2022-10-26T14:39:07.965Z,22.73
2022-10-26T14:41:37.462Z,22.78
2022-10-26T14:44:04.065Z,22.77
2022-10-26T14:46:34.516Z,22.66
2022-10-26T14:49:01.546Z,22.78
2022-10-26T14:51:35.035Z,22.78
2022-10-26T14:54:01.675Z,22.78
2022-10-26T14:56:46.097Z,22.79
2022-10-26T14:59:19.121Z,22.74
2022-10-26T15:01:58.175Z,22.79
2022-10-26T15:04:30.655Z,22.79
2022-10-26T15:07:12.450Z,22.80
2022-10-26T15:09:43.637Z,22.79
2022-10-26T15:12:30.140Z,22.79
2022-10-26T15:14:57.034Z,22.75
2022-10-26T15:17:27.672Z,22.80
2022-10-26T15:19:54.236Z,22.74
2022-10-26T15:22:24.080Z,22.80
2022-10-26T15:24:52.691Z,22.78
2022-10-26T15:27:19.183Z,22.80
2022-10-26T15:29:46.695Z,22.78
2022-10-26T15:32:18.951Z,22.82
2022-10-26T15:35:11.927Z,22.81
2022-10-26T15:37:38.934Z,22.82
2022-10-26T15:40:06.094Z,22.82
2022-10-26T15:42:32.608Z,22.81
2022-10-26T15:44:59.360Z,22.82
2022-10-26T15:47:29.708Z,22.82
2022-10-26T15:49:56.216Z,22.83
2022-10-26T15:52:22.712Z,22.82
2022-10-26T15:54:49.227Z,22.82
2022-10-26T15:57:19.138Z,22.82
2022-10-26T15:59:47.919Z,22.82
2022-10-26T16:02:14.927Z,22.82
2022-10-26T16:04:41.511Z,22.82
2022-10-26T16:07:12.675Z,22.81
2022-10-26T16:09:39.466Z,22.80
2022-10-26T16:12:06.251Z,22.82
2022-10-26T16:14:33.667Z,22.82
2022-10-26T16:17:08.499Z,22.83
2022-10-26T16:19:35.038Z,22.82
2022-10-26T16:22:01.655Z,22.83
2022-10-26T16:24:28.690Z,22.83
2022-10-26T16:26:55.230Z,22.82
2022-10-26T16:29:21.707Z,22.83
2022-10-26T16:31:48.374Z,22.83
2022-10-26T16:34:14.907Z,22.81
2022-10-26T16:36:41.420Z,22.83
2022-10-26T16:39:10.330Z,22.84
2022-10-26T16:41:36.811Z,22.84
2022-10-26T16:44:03.414Z,22.84
2022-10-26T16:46:29.955Z,22.79
2022-10-26T16:48:56.499Z,22.82
2022-10-26T16:51:24.462Z,22.84
2022-10-26T16:53:52.441Z,22.85
2022-10-26T16:56:21.143Z,22.85
2022-10-26T16:58:48.033Z,22.85
2022-10-26T17:01:18.237Z,22.79
2022-10-26T17:03:48.509Z,22.86
2022-10-26T17:06:15.050Z,22.84
2022-10-26T17:08:41.738Z,22.87
2022-10-26T17:11:09.124Z,22.87
2022-10-26T17:13:36.401Z,22.88
2022-10-26T17:16:07.473Z,22.87
2022-10-26T17:18:33.955Z,22.89
2022-10-26T17:21:00.462Z,22.88
2022-10-26T17:23:26.979Z,22.89
2022-10-26T17:25:53.683Z,22.87
2022-10-26T17:28:20.643Z,22.89
2022-10-26T17:30:47.156Z,22.89
2022-10-26T17:33:13.704Z,22.89
2022-10-26T17:35:40.221Z,22.89
2022-10-26T17:38:06.734Z,22.89
2022-10-26T17:40:33.311Z,22.89
2022-10-26T17:43:00.282Z,22.89
2022-10-26T17:45:26.966Z,22.89
2022-10-26T17:47:53.706Z,22.88
2022-10-26T17:50:20.431Z,22.84
2022-10-26T17:52:46.909Z,22.89
2022-10-26T17:55:13.467Z,22.88
2022-10-26T17:57:39.998Z,22.88
2022-10-26T18:00:06.985Z,22.88
2022-10-26T18:02:37.462Z,22.88
2022-10-26T18:05:06.916Z,22.87
2022-10-26T18:07:34.487Z,22.87
2022-10-26T18:10:14.002Z,22.88
2022-10-26T18:12:47.471Z,22.87
2022-10-26T18:15:13.959Z,22.85
2022-10-26T18:17:41.731Z,22.85
2022-10-26T18:20:08.818Z,22.87
2022-10-26T18:22:35.306Z,22.82
2022-10-26T18:25:01.764Z,22.87
2022-10-26T18:27:28.279Z,22.86
2022-10-26T18:29:54.739Z,22.86
2022-10-26T18:32:21.230Z,22.86
2022-10-26T18:34:47.943Z,22.86
2022-10-26T18:37:14.427Z,22.86
2022-10-26T18:39:40.927Z,22.86
2022-10-26T18:42:07.395Z,22.86
2022-10-26T18:44:33.888Z,22.84
2022-10-26T18:47:00.355Z,22.86
2022-10-26T18:49:27.340Z,22.86
2022-10-26T18:51:53.879Z,22.87
2022-10-26T18:54:20.891Z,22.86
2022-10-26T18:56:47.373Z,22.84
2022-10-26T18:59:13.880Z,22.87
2022-10-26T19:01:42.100Z,22.87
2022-10-26T19:04:09.396Z,22.85
2022-10-26T19:06:37.634Z,22.86
2022-10-26T19:09:04.520Z,22.87
2022-10-26T19:11:31.055Z,22.87
2022-10-26T19:13:57.704Z,22.87
2022-10-26T19:19:16.082Z,22.86
2022-10-26T19:21:42.765Z,22.86
2022-10-26T19:24:17.520Z,22.87
2022-10-26T19:26:44.439Z,22.79
2022-10-26T19:29:15.461Z,22.86
2022-10-26T19:31:42.906Z,22.87
2022-10-26T19:34:09.965Z,22.87
2022-10-26T19:36:36.508Z,22.86
2022-10-26T19:39:03.123Z,22.86
2022-10-26T19:41:31.232Z,22.87
2022-10-26T19:46:29.500Z,22.86
2022-10-26T19:48:57.571Z,22.83
2022-10-26T19:51:24.312Z,22.86
2022-10-26T19:53:50.822Z,22.86
2022-10-26T19:56:17.346Z,22.84
2022-10-26T19:58:44.256Z,22.85
2022-10-26T20:01:11.653Z,22.87
2022-10-26T20:03:38.206Z,22.84
2022-10-26T20:06:12.812Z,22.85
2022-10-26T20:08:43.348Z,22.87
2022-10-26T20:11:13.159Z,22.87
2022-10-26T20:13:42.502Z,22.86
2022-10-26T20:16:09.146Z,22.87
2022-10-26T20:18:35.647Z,22.87
2022-10-26T20:21:06.040Z,22.87
2022-10-26T20:23:32.532Z,22.87
2022-10-26T20:26:00.378Z,22.87
2022-10-26T20:28:26.976Z,22.87
2022-10-26T20:30:53.452Z,22.86
2022-10-26T20:33:19.988Z,22.86
2022-10-26T20:35:46.541Z,22.83
2022-10-26T20:38:19.514Z,22.87
2022-10-26T20:40:50.209Z,22.86
2022-10-26T20:43:18.114Z,22.86
2022-10-26T20:45:45.010Z,22.85
2022-10-26T20:48:11.891Z,22.86
2022-10-26T20:50:38.420Z,22.86
2022-10-26T20:53:12.053Z,22.86
2022-10-26T20:55:50.031Z,22.85
2022-10-26T20:58:41.410Z,22.85
2022-10-26T21:01:22.067Z,22.83
2022-10-26T21:03:48.599Z,22.82
2022-10-26T21:06:15.120Z,22.86
2022-10-26T21:08:41.606Z,22.85
2022-10-26T21:11:08.174Z,22.85
2022-10-26T21:13:34.634Z,22.85
2022-10-26T21:16:05.159Z,22.84
2022-10-26T21:18:32.267Z,22.84
2022-10-26T21:21:00.007Z,22.84
2022-10-26T21:23:30.692Z,22.85
2022-10-26T21:25:57.163Z,22.84
2022-10-26T21:28:23.706Z,22.83
2022-10-26T21:30:50.186Z,22.84
2022-10-26T21:33:18.902Z,22.83
2022-10-26T21:35:54.555Z,22.82
2022-10-26T21:38:21.082Z,22.83
2022-10-26T21:40:47.570Z,22.83
2022-10-26T21:43:14.114Z,22.79
2022-10-26T21:45:40.588Z,22.83
2022-10-26T21:48:07.091Z,22.81
2022-10-26T21:50:33.631Z,22.83
2022-10-26T21:53:00.119Z,22.83
2022-10-26T21:55:26.583Z,22.83
2022-10-26T21:57:53.880Z,22.81
2022-10-26T22:00:20.440Z,22.83
2022-10-26T22:02:46.903Z,22.80
2022-10-26T22:05:13.399Z,22.83
2022-10-26T22:07:39.919Z,22.83
2022-10-26T22:10:10.760Z,22.82
2022-10-26T22:12:37.737Z,22.83
2022-10-26T22:15:04.609Z,22.83
2022-10-26T22:17:31.092Z,22.84
2022-10-26T22:19:57.611Z,22.83
2022-10-26T22:22:24.107Z,22.82
2022-10-26T22:24:50.592Z,22.82
2022-10-26T22:27:17.062Z,22.81
2022-10-26T22:29:43.546Z,22.82
2022-10-26T22:32:10.002Z,22.82
2022-10-26T22:34:36.527Z,22.82
2022-10-26T22:37:03.018Z,22.82
2022-10-26T22:39:29.564Z,22.82
2022-10-26T22:41:56.047Z,22.82
2022-10-26T22:44:22.544Z,22.82
2022-10-26T22:46:49.047Z,22.82
2022-10-26T22:49:15.593Z,22.82
2022-10-26T22:51:42.096Z,22.80
2022-10-26T22:54:08.616Z,22.81
2022-10-26T22:56:35.415Z,22.82
2022-10-26T22:59:01.972Z,22.80
2022-10-26T23:01:31.392Z,22.81
2022-10-26T23:03:58.374Z,22.81
2022-10-26T23:06:26.085Z,22.82
2022-10-26T23:08:52.568Z,22.82
2022-10-26T23:11:19.916Z,22.81
2022-10-26T23:13:46.432Z,22.80
2022-10-26T23:16:14.439Z,22.79
2022-10-26T23:18:41.092Z,22.80
2022-10-26T23:21:08.241Z,22.79
2022-10-26T23:23:35.087Z,22.79
2022-10-26T23:26:10.128Z,22.80
2022-10-26T23:28:36.688Z,22.71
2022-10-26T23:31:03.200Z,22.81
2022-10-26T23:33:29.743Z,22.81
2022-10-26T23:35:57.375Z,22.80
2022-10-26T23:38:24.469Z,22.82
2022-10-26T23:40:54.695Z,22.78
2022-10-26T23:43:21.395Z,22.79
2022-10-26T23:45:47.993Z,22.80
2022-10-26T23:48:14.953Z,22.81
2022-10-26T23:50:43.016Z,22.79
2022-10-26T23:53:10.320Z,22.81
2022-10-26T23:55:36.863Z,22.81
2022-10-26T23:58:03.327Z,22.81
